sensor_id;sensor_type;location;lat;lon;timestamp;temperature;humidity
10572;DHT22;5334;48.928;12.704;2022-12-07T02:31:28;2.90;99.90
10572;DHT22;5334;48.928;12.704;2022-12-07T10:14:35;4.10;99.90
10572;DHT22;5334;48.928;12.704;2022-12-07T10:26:54;3.80;99.90
10572;DHT22;5334;48.928;12.704;2022-12-07T10:29:36;3.80;99.90
10572;DHT22;5334;48.928;12.704;2022-12-07T10:32:05;3.80;99.90
10572;DHT22;5334;48.928;12.704;2022-12-07T10:34:35;3.80;99.90
10572;DHT22;5334;48.928;12.704;2022-12-07T10:37:26;3.80;99.90
10572;DHT22;5334;48.928;12.704;2022-12-07T10:39:57;3.80;99.90
10572;DHT22;5334;48.928;12.704;2022-12-07T10:42:25;3.80;99.90
10572;DHT22;5334;48.928;12.704;2022-12-07T10:45:14;3.90;99.90
10572;DHT22;5334;48.928;12.704;2022-12-07T10:47:54;3.90;99.90
10572;DHT22;5334;48.928;12.704;2022-12-07T10:50:47;3.90;99.90
10572;DHT22;5334;48.928;12.704;2022-12-07T11:07:13;4.20;99.90
10572;DHT22;5334;48.928;12.704;2022-12-07T11:18:14;4.20;99.90
10572;DHT22;5334;48.928;12.704;2022-12-07T11:20:50;4.20;99.90
10572;DHT22;5334;48.928;12.704;2022-12-07T11:31:34;4.10;99.90
10572;DHT22;5334;48.928;12.704;2022-12-07T11:34:19;4.00;99.90
10572;DHT22;5334;48.928;12.704;2022-12-07T11:36:54;4.10;99.90
10572;DHT22;5334;48.928;12.704;2022-12-07T11:41:49;4.00;99.90
10572;DHT22;5334;48.928;12.704;2022-12-07T11:46:56;4.10;99.90
10572;DHT22;5334;48.928;12.704;2022-12-07T11:49:27;4.10;99.90
10572;DHT22;5334;48.928;12.704;2022-12-07T11:52:02;4.10;99.90
10572;DHT22;5334;48.928;12.704;2022-12-07T11:54:34;4.20;99.90
10572;DHT22;5334;48.928;12.704;2022-12-07T11:57:07;4.20;99.90
10572;DHT22;5334;48.928;12.704;2022-12-07T11:59:45;4.20;99.90
10572;DHT22;5334;48.928;12.704;2022-12-07T12:02:16;4.20;99.90
10572;DHT22;5334;48.928;12.704;2022-12-07T12:07:23;4.20;99.90
10572;DHT22;5334;48.928;12.704;2022-12-07T12:09:55;4.20;99.90
10572;DHT22;5334;48.928;12.704;2022-12-07T12:18:06;4.20;99.90
10572;DHT22;5334;48.928;12.704;2022-12-07T12:23:48;4.00;99.90
10572;DHT22;5334;48.928;12.704;2022-12-07T12:26:20;3.90;99.90
10572;DHT22;5334;48.928;12.704;2022-12-07T12:28:56;3.80;99.90
10572;DHT22;5334;48.928;12.704;2022-12-07T12:33:57;3.80;99.90
10572;DHT22;5334;48.928;12.704;2022-12-07T12:46:54;3.90;99.90
10572;DHT22;5334;48.928;12.704;2022-12-07T12:51:57;4.00;99.90
10572;DHT22;5334;48.928;12.704;2022-12-07T12:57:22;4.00;99.90
10572;DHT22;5334;48.928;12.704;2022-12-07T13:02:31;3.90;99.90
10572;DHT22;5334;48.928;12.704;2022-12-07T13:10:24;3.90;99.90
10572;DHT22;5334;48.928;12.704;2022-12-07T19:03:01;3.60;99.90
10572;DHT22;5334;48.928;12.704;2022-12-07T19:05:35;3.40;99.90
10572;DHT22;5334;48.928;12.704;2022-12-07T20:07:11;3.00;99.90
10572;DHT22;5334;48.928;12.704;2022-12-07T20:09:37;3.10;99.90
10572;DHT22;5334;48.928;12.704;2022-12-07T20:12:02;3.10;99.90
10572;DHT22;5334;48.928;12.704;2022-12-07T20:14:46;3.20;99.90
10572;DHT22;5334;48.928;12.704;2022-12-07T20:17:12;3.10;99.90
10572;DHT22;5334;48.928;12.704;2022-12-07T20:19:38;3.10;99.90
10572;DHT22;5334;48.928;12.704;2022-12-07T20:22:05;3.10;99.90
10572;DHT22;5334;48.928;12.704;2022-12-07T20:24:30;3.10;99.90
10572;DHT22;5334;48.928;12.704;2022-12-07T20:26:57;3.10;99.90
10572;DHT22;5334;48.928;12.704;2022-12-07T20:29:24;3.10;99.90
10572;DHT22;5334;48.928;12.704;2022-12-07T20:31:52;3.20;99.90
10572;DHT22;5334;48.928;12.704;2022-12-07T20:34:18;3.20;99.90
10572;DHT22;5334;48.928;12.704;2022-12-07T20:36:44;3.20;99.90
10572;DHT22;5334;48.928;12.704;2022-12-07T20:39:10;3.10;99.90
10572;DHT22;5334;48.928;12.704;2022-12-07T20:41:37;3.10;99.90
10572;DHT22;5334;48.928;12.704;2022-12-07T20:44:22;3.10;99.90
10572;DHT22;5334;48.928;12.704;2022-12-07T20:46:47;3.10;99.90
10572;DHT22;5334;48.928;12.704;2022-12-07T20:49:14;3.10;99.90
10572;DHT22;5334;48.928;12.704;2022-12-07T20:51:41;3.00;99.90
10572;DHT22;5334;48.928;12.704;2022-12-07T20:54:07;3.10;99.90
10572;DHT22;5334;48.928;12.704;2022-12-07T20:56:33;3.00;99.90
10572;DHT22;5334;48.928;12.704;2022-12-07T22:01:26;2.70;99.90
10572;DHT22;5334;48.928;12.704;2022-12-07T22:03:53;2.80;99.90
10572;DHT22;5334;48.928;12.704;2022-12-07T22:06:21;2.80;99.90
10572;DHT22;5334;48.928;12.704;2022-12-07T22:08:47;2.70;99.90
10572;DHT22;5334;48.928;12.704;2022-12-07T22:11:14;2.70;99.90
10572;DHT22;5334;48.928;12.704;2022-12-07T22:13:41;2.80;99.90
10572;DHT22;5334;48.928;12.704;2022-12-07T22:16:25;2.80;99.90
10572;DHT22;5334;48.928;12.704;2022-12-07T22:18:52;2.80;99.90
10572;DHT22;5334;48.928;12.704;2022-12-07T22:21:18;2.80;99.90
10572;DHT22;5334;48.928;12.704;2022-12-07T22:23:44;2.80;99.90
10572;DHT22;5334;48.928;12.704;2022-12-07T22:26:12;2.80;99.90
10572;DHT22;5334;48.928;12.704;2022-12-07T22:28:39;2.70;99.90
10572;DHT22;5334;48.928;12.704;2022-12-07T22:31:09;2.70;99.90
10572;DHT22;5334;48.928;12.704;2022-12-07T22:33:35;2.70;99.90
10572;DHT22;5334;48.928;12.704;2022-12-07T22:36:01;2.60;99.90
10572;DHT22;5334;48.928;12.704;2022-12-07T22:38:27;2.60;99.90
10572;DHT22;5334;48.928;12.704;2022-12-07T22:40:54;2.60;99.90
